Time;durP1;ratioP1;P1;durP2;ratioP2;P2;SDS_P1;SDS_P2;PMS_P1;PMS_P2;Temp;Humidity;BMP_temperature;BMP_pressure;BME280_temperature;BME280_humidity;BME280_pressure;Samples;Min_cycle;Max_cycle;Signal;HPM_P1;HPM_P2
2021/01/29 00:00:54;;;;;;;7.35;1.77;;;;;;;9.91;79.15;97625.19;5092577;28;20044;-66
2021/01/29 00:03:21;;;;;;;4.32;1.45;;;;;;;9.88;79.54;97620.34;5092664;28;20052;-66
2021/01/29 00:05:53;;;;;;;6.50;2.00;;;;;;;9.88;79.71;97623.00;5093189;28;20052;-66
2021/01/29 00:08:21;;;;;;;3.30;1.90;;;;;;;9.87;79.70;97618.72;5094765;28;20040;-66
2021/01/29 00:10:48;;;;;;;3.60;2.40;;;;;;;9.89;79.94;97615.88;5093976;28;20051;-66
2021/01/29 00:13:16;;;;;;;2.65;1.50;;;;;;;9.87;80.36;97608.16;5092505;28;20051;-66
2021/01/29 00:15:43;;;;;;;3.13;1.48;;;;;;;9.89;80.07;97598.19;5091973;28;20044;-66
2021/01/29 00:18:12;;;;;;;5.68;2.00;;;;;;;9.91;79.90;97597.97;5092063;28;20097;-66
2021/01/29 00:20:40;;;;;;;5.68;1.83;;;;;;;9.87;80.12;97594.97;5092149;28;20036;-66
2021/01/29 00:23:07;;;;;;;4.85;1.48;;;;;;;9.86;80.43;97585.44;5092075;28;20067;-66
2021/01/29 00:25:36;;;;;;;6.70;1.55;;;;;;;9.88;80.47;97590.50;5090507;28;20135;-66
2021/01/29 00:28:04;;;;;;;3.90;1.33;;;;;;;9.88;80.41;97579.97;5091857;28;20417;-66
2021/01/29 00:30:32;;;;;;;2.72;1.35;;;;;;;9.87;80.64;97571.19;5092032;28;20509;-66
2021/01/29 00:32:59;;;;;;;4.43;1.67;;;;;;;9.89;80.79;97568.38;5091913;28;20427;-66
2021/01/29 00:35:29;;;;;;;3.00;1.67;;;;;;;9.86;80.84;97558.22;5091862;28;20044;-66
2021/01/29 00:37:57;;;;;;;2.67;1.58;;;;;;;9.90;80.92;97554.13;5091907;28;20044;-66
2021/01/29 00:40:24;;;;;;;4.05;2.08;;;;;;;9.91;81.10;97547.81;5095199;28;20051;-66
2021/01/29 00:42:51;;;;;;;2.53;1.80;;;;;;;9.89;81.00;97545.41;5096338;28;20071;-66
2021/01/29 00:45:20;;;;;;;5.80;1.77;;;;;;;9.87;81.14;97546.66;5095895;28;20459;-66
2021/01/29 00:47:48;;;;;;;3.00;1.67;;;;;;;9.86;81.30;97539.75;5096033;28;20028;-66
2021/01/29 00:50:16;;;;;;;4.13;1.52;;;;;;;9.91;81.49;97545.97;5094575;28;20102;-67
2021/01/29 00:52:42;;;;;;;4.15;1.50;;;;;;;9.90;81.29;97531.19;5096032;28;20119;-66
2021/01/29 00:55:11;;;;;;;2.40;1.52;;;;;;;9.92;81.45;97525.69;5094406;28;20040;-67
2021/01/29 00:57:49;;;;;;;2.92;1.70;;;;;;;9.92;81.41;97504.59;5094620;28;20043;-67
2021/01/29 01:00:34;;;;;;;3.58;1.58;;;;;;;9.86;81.46;97500.16;5096176;28;20177;-67
2021/01/29 01:03:05;;;;;;;1.58;1.20;;;;;;;9.88;81.67;97487.56;5094557;28;20134;-67
2021/01/29 01:05:32;;;;;;;3.53;1.90;;;;;;;9.85;82.03;97490.63;5094062;28;20138;-66
2021/01/29 01:08:00;;;;;;;2.03;1.38;;;;;;;9.86;81.86;97485.13;5094379;28;20040;-67
2021/01/29 01:10:50;;;;;;;3.38;1.58;;;;;;;9.88;81.91;97480.47;5095481;28;20059;-66
2021/01/29 01:13:49;;;;;;;1.15;1.05;;;;;;;9.87;81.75;97476.19;5083049;28;20063;-66
2021/01/29 01:16:42;;;;;;;1.48;0.80;;;;;;;9.91;81.99;97453.59;5095256;28;20574;-66
2021/01/29 01:19:28;;;;;;;1.88;1.13;;;;;;;9.91;81.71;97450.94;5094066;28;20497;-66
2021/01/29 01:22:02;;;;;;;2.88;0.95;;;;;;;9.91;81.65;97455.44;5095408;28;20101;-66
2021/01/29 01:24:49;;;;;;;0.80;0.80;;;;;;;9.90;81.57;97451.19;5093845;28;20098;-66
2021/01/29 01:27:18;;;;;;;3.22;1.05;;;;;;;9.90;81.74;97451.19;5093914;28;20044;-66
2021/01/29 01:30:05;;;;;;;1.95;1.08;;;;;;;9.91;81.72;97435.13;5095248;28;20048;-66
2021/01/29 01:32:35;;;;;;;3.55;1.73;;;;;;;9.93;81.83;97433.06;5093976;28;20135;-66
2021/01/29 01:35:32;;;;;;;1.48;0.80;;;;;;;9.96;81.57;97425.72;5074765;28;20071;-66
2021/01/29 01:38:00;;;;;;;0.60;0.60;;;;;;;9.88;81.51;97421.59;5093598;28;20040;-66
2021/01/29 01:40:41;;;;;;;1.17;0.60;;;;;;;9.86;81.65;97415.69;5093650;28;20040;-66
2021/01/29 01:43:13;;;;;;;0.40;0.40;;;;;;;9.86;81.94;97407.78;5093736;28;20055;-66
2021/01/29 01:45:56;;;;;;;0.70;0.50;;;;;;;9.88;82.08;97397.81;5093837;28;20402;-66
2021/01/29 01:48:35;;;;;;;0.80;0.60;;;;;;;9.85;81.92;97388.50;5094841;28;20052;-67
2021/01/29 01:51:28;;;;;;;0.50;0.50;;;;;;;9.85;82.38;97380.59;5093250;28;20047;-68
2021/01/29 01:54:00;;;;;;;0.57;0.57;;;;;;;9.85;81.94;97369.22;5093536;28;20105;-67
2021/01/29 01:56:38;;;;;;;0.65;0.65;;;;;;;9.89;82.15;97373.03;5093153;28;20048;-67
2021/01/29 01:59:30;;;;;;;0.47;0.47;;;;;;;9.87;82.26;97361.88;5095028;28;20476;-67
2021/01/29 02:02:34;;;;;;;0.50;0.50;;;;;;;9.82;82.38;97353.81;5082223;28;20130;-66
2021/01/29 02:05:27;;;;;;;0.45;0.45;;;;;;;9.82;82.44;97345.91;5090997;28;20071;-67
2021/01/29 02:08:34;;;;;;;0.50;0.50;;;;;;;9.79;82.70;97338.44;5097847;28;20051;-66
2021/01/29 02:11:24;;;;;;;0.45;0.45;;;;;;;9.79;82.51;97327.88;5094079;28;20418;-66
2021/01/29 02:14:08;;;;;;;0.60;0.60;;;;;;;9.84;82.58;97320.13;5093080;28;20066;-66
2021/01/29 02:17:01;;;;;;;0.38;0.38;;;;;;;9.87;82.71;97314.38;5093985;28;20052;-66
2021/01/29 02:20:25;;;;;;;0.52;0.52;;;;;;;9.88;82.41;97311.53;5094298;28;20059;-67
2021/01/29 02:23:35;;;;;;;1.05;0.60;;;;;;;9.90;82.13;97304.16;5092932;28;20131;-66
2021/01/29 02:26:50;;;;;;;1.88;0.50;;;;;;;9.87;82.03;97295.88;5094201;28;20059;-67
2021/01/29 02:29:37;;;;;;;0.80;0.80;;;;;;;9.88;82.43;97298.31;5090218;28;20501;-66
2021/01/29 02:32:28;;;;;;;1.10;0.60;;;;;;;9.90;82.15;97293.63;5093996;28;20081;-66
2021/01/29 02:35:23;;;;;;;0.93;0.90;;;;;;;9.92;82.02;97288.13;5093700;28;20039;-66
2021/01/29 02:38:25;;;;;;;0.98;0.90;;;;;;;9.90;82.37;97269.84;5092564;28;20040;-66
2021/01/29 02:41:05;;;;;;;1.75;0.73;;;;;;;9.86;82.56;97266.06;5092950;28;20044;-67
2021/01/29 02:43:50;;;;;;;1.15;0.80;;;;;;;9.88;82.87;97260.56;5093076;28;20048;-66
2021/01/29 02:46:49;;;;;;;1.67;0.70;;;;;;;9.89;83.21;97257.69;5094244;28;20059;-65
2021/01/29 02:49:47;;;;;;;2.00;0.90;;;;;;;9.89;83.06;97256.91;5094164;28;20051;-65
2021/01/29 02:52:59;;;;;;;0.60;0.60;;;;;;;9.89;83.32;97244.50;5107526;28;20077;-66
2021/01/29 02:55:56;;;;;;;2.08;0.70;;;;;;;9.85;82.93;97232.78;5109447;28;20054;-66
2021/01/29 02:58:43;;;;;;;1.27;0.50;;;;;;;9.86;83.45;97218.56;5102883;28;20044;-66
2021/01/29 03:01:38;;;;;;;1.35;0.70;;;;;;;9.89;83.31;97225.22;5093078;28;20062;-65
2021/01/29 03:04:28;;;;;;;1.17;0.80;;;;;;;9.92;82.84;97208.94;5092190;28;20525;-66
2021/01/29 03:07:02;;;;;;;0.70;0.70;;;;;;;9.91;83.01;97208.09;5092318;28;20048;-65
2021/01/29 03:09:40;;;;;;;1.00;0.90;;;;;;;9.96;82.69;97201.34;5092337;28;20138;-66
2021/01/29 03:12:31;;;;;;;0.70;0.70;;;;;;;9.93;82.68;97184.16;5093653;28;20138;-66
2021/01/29 03:15:27;;;;;;;1.08;0.88;;;;;;;9.95;82.61;97178.63;5093366;28;20051;-66
2021/01/29 03:18:18;;;;;;;1.77;0.90;;;;;;;9.91;82.63;97176.44;5093151;28;20058;-66
2021/01/29 03:21:09;;;;;;;1.10;1.00;;;;;;;9.90;83.12;97169.56;5093652;28;20125;-66
2021/01/29 03:23:59;;;;;;;1.67;0.95;;;;;;;9.91;82.89;97151.88;5093534;28;20110;-66
2021/01/29 03:26:51;;;;;;;1.15;0.90;;;;;;;9.91;83.10;97155.31;5093577;28;20536;-66
2021/01/29 03:29:42;;;;;;;1.25;0.90;;;;;;;9.89;82.73;97143.41;5093171;28;20055;-66
2021/01/29 03:32:29;;;;;;;1.92;1.15;;;;;;;9.88;82.95;97152.34;5093284;28;20166;-66
2021/01/29 03:35:19;;;;;;;1.08;1.00;;;;;;;9.88;82.88;97137.31;5093050;28;20055;-66
2021/01/29 03:38:12;;;;;;;1.20;1.10;;;;;;;9.90;82.97;97129.97;5092939;28;20574;-67
2021/01/29 03:41:06;;;;;;;1.55;1.20;;;;;;;9.91;82.67;97118.38;5093196;28;20047;-66
2021/01/29 03:44:04;;;;;;;1.07;0.77;;;;;;;9.91;82.73;97093.81;5092846;28;20181;-66
2021/01/29 03:46:59;;;;;;;2.33;0.90;;;;;;;9.91;82.60;97091.16;5093098;28;20048;-66
2021/01/29 03:49:53;;;;;;;1.58;0.90;;;;;;;9.93;82.49;97097.03;5092912;28;20200;-66
2021/01/29 03:52:46;;;;;;;1.42;0.70;;;;;;;9.89;82.32;97083.50;5092945;28;20084;-66
2021/01/29 03:55:45;;;;;;;0.80;0.80;;;;;;;9.87;81.80;97075.00;5072217;28;20070;-66
2021/01/29 03:58:39;;;;;;;0.80;0.80;;;;;;;9.87;81.85;97072.34;5080785;28;20086;-66
2021/01/29 04:01:35;;;;;;;1.77;0.95;;;;;;;9.88;82.13;97063.41;5092768;28;20055;-66
2021/01/29 04:04:27;;;;;;;1.08;0.98;;;;;;;9.88;81.87;97052.88;5092242;28;20456;-66
2021/01/29 04:07:20;;;;;;;0.60;0.60;;;;;;;9.85;82.12;97055.16;5092510;28;20051;-66
2021/01/29 04:10:10;;;;;;;0.57;0.50;;;;;;;9.86;82.55;97049.63;5092608;28;20149;-66
2021/01/29 04:13:12;;;;;;;1.95;0.50;;;;;;;9.87;82.59;97053.06;5091710;28;20051;-66
2021/01/29 04:15:42;;;;;;;0.40;0.40;;;;;;;9.82;82.49;97043.22;5091660;28;20054;-66
2021/01/29 04:18:15;;;;;;;1.45;0.55;;;;;;;9.83;82.88;97030.81;5090925;28;20526;-66
2021/01/29 04:20:46;;;;;;;1.00;0.60;;;;;;;9.84;82.92;97025.31;5092370;28;20413;-66
2021/01/29 04:23:19;;;;;;;0.57;0.57;;;;;;;9.82;82.91;97019.47;5092222;28;20047;-66
2021/01/29 04:25:55;;;;;;;0.70;0.50;;;;;;;9.81;83.26;97024.97;5091923;28;20052;-66
2021/01/29 04:28:25;;;;;;;1.25;0.57;;;;;;;9.85;82.98;97012.94;5092250;28;20093;-67
2021/01/29 04:30:55;;;;;;;0.93;0.40;;;;;;;9.82;83.59;96995.72;5092170;28;20044;-67
2021/01/29 04:33:26;;;;;;;0.82;0.40;;;;;;;9.79;83.25;96996.16;5092357;28;20047;-66
2021/01/29 04:35:58;;;;;;;0.68;0.65;;;;;;;9.79;83.24;96975.06;5092066;28;20052;-67
2021/01/29 04:38:36;;;;;;;0.50;0.50;;;;;;;9.80;83.07;96975.88;5090812;28;20044;-67
2021/01/29 04:41:13;;;;;;;0.50;0.50;;;;;;;9.82;83.23;96958.75;5092132;28;20052;-66
2021/01/29 04:43:59;;;;;;;0.73;0.60;;;;;;;9.86;82.87;96916.88;5092089;28;20486;-66
2021/01/29 04:47:05;;;;;;;0.63;0.57;;;;;;;9.85;82.81;96937.19;5091743;28;20046;-67
2021/01/29 04:49:50;;;;;;;0.40;0.40;;;;;;;9.83;82.91;96938.44;5074249;28;20093;-67
2021/01/29 04:52:56;;;;;;;1.40;0.40;;;;;;;9.80;82.98;96938.94;5092069;28;20661;-67
2021/01/29 04:55:37;;;;;;;0.30;0.30;;;;;;;9.80;83.20;96934.47;5091750;28;20044;-66
2021/01/29 04:58:10;;;;;;;0.40;0.40;;;;;;;9.79;83.14;96926.75;5091770;28;20044;-67
2021/01/29 05:01:21;;;;;;;0.40;0.40;;;;;;;9.79;83.58;96908.28;5092380;28;20055;-67
2021/01/29 05:04:44;;;;;;;0.32;0.30;;;;;;;9.80;83.75;96902.00;5092142;28;20051;-66
2021/01/29 05:08:03;;;;;;;0.43;0.35;;;;;;;9.77;83.57;96905.09;5091710;28;20136;-67
2021/01/29 05:11:06;;;;;;;0.40;0.40;;;;;;;9.76;83.74;96896.38;5090469;28;20048;-67
2021/01/29 05:13:52;;;;;;;0.40;0.40;;;;;;;9.79;83.64;96895.09;5091774;28;20077;-66
2021/01/29 05:16:54;;;;;;;0.57;0.40;;;;;;;9.79;83.75;96895.88;5091325;28;20046;-66
2021/01/29 05:19:42;;;;;;;1.48;1.00;;;;;;;9.81;83.81;96893.03;5091738;28;20036;-66
2021/01/29 05:22:27;;;;;;;1.20;0.55;;;;;;;9.81;83.82;96895.66;5091758;28;20052;-66
2021/01/29 05:25:41;;;;;;;4.13;0.32;;;;;;;9.80;83.70;96894.88;5091761;28;20050;-65
2021/01/29 05:28:54;;;;;;;0.55;0.30;;;;;;;9.81;83.40;96887.75;5095323;28;20040;-65
2021/01/29 05:31:40;;;;;;;0.30;0.30;;;;;;;9.83;83.67;96881.19;5095263;28;20052;-65
2021/01/29 05:34:26;;;;;;;1.65;0.40;;;;;;;9.84;83.41;96889.94;5093948;28;20048;-66
2021/01/29 05:37:10;;;;;;;2.85;0.40;;;;;;;9.84;82.47;96898.66;5095187;28;20451;-65
2021/01/29 05:39:53;;;;;;;0.30;0.30;;;;;;;9.84;79.83;96911.84;5095150;28;20447;-65
2021/01/29 05:42:40;;;;;;;0.50;0.50;;;;;;;9.78;79.86;96902.22;5095239;28;20040;-65
2021/01/29 05:45:31;;;;;;;0.35;0.35;;;;;;;9.68;78.05;96902.03;5094768;28;20052;-65
2021/01/29 05:48:16;;;;;;;0.93;0.70;;;;;;;9.59;79.11;96900.75;5094842;28;20032;-65
2021/01/29 05:51:10;;;;;;;0.60;0.60;;;;;;;9.53;78.22;96907.78;5093523;28;20086;-65
2021/01/29 05:54:07;;;;;;;0.60;0.60;;;;;;;9.49;77.03;96932.22;5095074;28;20052;-65
2021/01/29 05:56:48;;;;;;;0.40;0.40;;;;;;;9.43;76.81;96952.41;5094578;28;20043;-65
2021/01/29 05:59:48;;;;;;;0.88;0.70;;;;;;;9.34;76.78;96957.19;5094816;28;20040;-66
2021/01/29 06:02:33;;;;;;;0.65;0.50;;;;;;;9.27;75.98;96966.28;5091923;28;20130;-65
2021/01/29 06:05:22;;;;;;;0.52;0.50;;;;;;;9.20;76.05;96969.00;5094440;28;20059;-65
2021/01/29 06:08:22;;;;;;;0.63;0.50;;;;;;;9.18;76.09;96982.44;5094606;28;20040;-65
2021/01/29 06:11:02;;;;;;;2.25;0.65;;;;;;;9.15;75.87;96982.09;5094595;28;20498;-64
2021/01/29 06:13:59;;;;;;;0.88;0.57;;;;;;;9.06;76.04;96991.31;5094672;28;20052;-64
2021/01/29 06:16:56;;;;;;;0.65;0.60;;;;;;;9.04;76.07;96999.47;5094154;28;20054;-64
2021/01/29 06:20:02;;;;;;;0.50;0.50;;;;;;;8.96;75.54;97006.91;5094341;28;20036;-64
2021/01/29 06:22:53;;;;;;;1.42;0.60;;;;;;;8.91;75.56;97010.22;5094537;28;20051;-65
2021/01/29 06:25:34;;;;;;;1.17;0.65;;;;;;;8.91;75.94;97011.03;5093868;28;20048;-65
2021/01/29 06:28:22;;;;;;;1.15;0.50;;;;;;;8.87;76.21;97015.13;5094164;28;20040;-64
2021/01/29 06:31:15;;;;;;;1.05;0.45;;;;;;;8.88;76.42;97011.47;5094246;28;20402;-64
2021/01/29 06:34:06;;;;;;;0.60;0.60;;;;;;;8.81;76.48;97000.22;5094171;28;20040;-64
2021/01/29 06:36:56;;;;;;;1.38;0.55;;;;;;;8.83;76.76;97007.91;5092905;28;20066;-64
2021/01/29 06:39:36;;;;;;;0.50;0.43;;;;;;;8.82;76.17;97025.56;5094047;28;20433;-64
2021/01/29 06:42:41;;;;;;;1.10;0.52;;;;;;;8.79;76.31;97026.00;5111821;28;20040;-64
2021/01/29 06:45:29;;;;;;;1.03;0.90;;;;;;;8.76;76.51;97013.25;5120322;28;20062;-65
2021/01/29 06:48:29;;;;;;;1.17;0.73;;;;;;;8.78;76.41;97026.22;5098226;28;20083;-64
2021/01/29 06:51:14;;;;;;;1.40;0.80;;;;;;;8.79;76.26;97015.47;5093862;28;20451;-64
2021/01/29 06:54:01;;;;;;;1.73;0.75;;;;;;;8.84;76.35;97027.97;5092541;28;20039;-64
2021/01/29 06:56:49;;;;;;;1.25;0.60;;;;;;;8.87;76.12;97025.69;5093470;28;20052;-64
2021/01/29 06:59:34;;;;;;;1.35;0.73;;;;;;;8.90;76.49;97040.25;5088573;28;20109;-64
2021/01/29 07:02:14;;;;;;;1.02;0.50;;;;;;;8.87;76.79;97035.41;5093993;28;20536;-64
2021/01/29 07:05:09;;;;;;;2.55;0.80;;;;;;;8.88;77.39;97040.44;5093942;28;20386;-64
2021/01/29 07:07:51;;;;;;;0.50;0.45;;;;;;;8.82;77.72;97032.66;5093759;28;20040;-64
2021/01/29 07:10:48;;;;;;;1.38;0.80;;;;;;;8.77;78.36;97043.03;5093416;28;20055;-64
2021/01/29 07:13:24;;;;;;;1.55;0.60;;;;;;;8.79;78.72;97057.63;5093325;28;20059;-64
2021/01/29 07:16:05;;;;;;;0.55;0.50;;;;;;;8.79;78.50;97046.28;5092960;28;20136;-63
2021/01/29 07:18:53;;;;;;;1.33;0.50;;;;;;;8.78;78.83;97052.56;5093114;28;20037;-64
2021/01/29 07:21:34;;;;;;;0.88;0.50;;;;;;;8.75;79.65;97043.28;5093175;28;20055;-63
2021/01/29 07:24:14;;;;;;;1.40;0.60;;;;;;;8.67;80.62;97052.28;5093135;28;20040;-65
2021/01/29 07:26:55;;;;;;;0.95;0.50;;;;;;;8.66;80.89;97045.44;5093036;28;20525;-66
2021/01/29 07:29:44;;;;;;;0.80;0.63;;;;;;;8.65;81.24;97053.53;5092955;28;20036;-64
2021/01/29 07:32:18;;;;;;;0.82;0.70;;;;;;;8.70;81.40;97053.69;5092924;28;20082;-65
2021/01/29 07:34:54;;;;;;;1.95;0.98;;;;;;;8.68;81.05;97055.72;5092709;28;20044;-64
2021/01/29 07:37:40;;;;;;;1.13;0.75;;;;;;;8.68;80.79;97058.38;5092858;28;20047;-65
2021/01/29 07:40:45;;;;;;;2.40;0.90;;;;;;;8.72;80.73;97059.53;5092823;28;20049;-65
2021/01/29 07:43:24;;;;;;;2.38;0.82;;;;;;;8.79;80.51;97075.25;5092747;28;20060;-64
2021/01/29 07:46:24;;;;;;;3.72;0.70;;;;;;;8.83;79.76;97064.03;5092601;28;20136;-64
2021/01/29 07:49:10;;;;;;;4.05;1.25;;;;;;;8.85;79.67;97072.50;5081284;28;20052;-65
2021/01/29 07:51:45;;;;;;;3.67;1.00;;;;;;;8.92;79.05;97080.34;5048596;28;20062;-64
2021/01/29 07:54:40;;;;;;;7.35;1.25;;;;;;;8.92;79.03;97077.72;5092430;28;20044;-65
2021/01/29 07:57:19;;;;;;;2.70;0.70;;;;;;;8.91;78.88;97076.91;5092426;28;20040;-66
2021/01/29 08:00:03;;;;;;;1.67;0.60;;;;;;;8.91;79.17;97084.81;5092467;28;20036;-66
2021/01/29 08:03:18;;;;;;;1.48;0.60;;;;;;;8.91;79.01;97087.44;5092528;28;20040;-65
2021/01/29 08:05:54;;;;;;;2.83;0.80;;;;;;;8.93;79.06;97084.56;5075145;28;20060;-65
2021/01/29 08:08:24;;;;;;;1.10;0.60;;;;;;;8.98;78.61;97097.91;5092333;28;20032;-65
2021/01/29 08:10:54;;;;;;;4.63;0.88;;;;;;;9.00;77.73;97102.94;5092381;28;20051;-65
2021/01/29 08:13:30;;;;;;;5.32;1.35;;;;;;;9.07;77.04;97104.47;5092245;28;20047;-65
2021/01/29 08:16:21;;;;;;;3.17;1.05;;;;;;;9.10;76.43;97103.19;5092118;28;20048;-66
2021/01/29 08:18:59;;;;;;;3.17;1.00;;;;;;;9.18;75.57;97116.06;5092489;28;20044;-65
2021/01/29 08:22:06;;;;;;;2.97;1.00;;;;;;;9.23;74.43;97099.59;5092307;28;20040;-66
2021/01/29 08:24:51;;;;;;;1.80;0.98;;;;;;;9.32;73.94;97122.75;5091893;28;20051;-65
2021/01/29 08:27:47;;;;;;;4.13;1.20;;;;;;;9.41;73.74;97112.69;5092049;28;20044;-65
2021/01/29 08:30:48;;;;;;;3.28;1.17;;;;;;;9.48;72.65;97128.44;5092335;28;20059;-65
2021/01/29 08:34:01;;;;;;;3.08;1.20;;;;;;;9.50;72.36;97127.16;5092084;28;20127;-66
2021/01/29 08:36:37;;;;;;;3.25;1.13;;;;;;;9.66;72.25;97150.25;5090563;28;20048;-65
2021/01/29 08:39:11;;;;;;;4.75;1.30;;;;;;;9.72;72.03;97134.56;5092024;28;20393;-65
2021/01/29 08:41:53;;;;;;;5.50;1.48;;;;;;;9.83;71.75;97144.28;5092076;28;20406;-65
2021/01/29 08:44:49;;;;;;;6.75;1.70;;;;;;;9.84;70.75;97153.84;5091681;28;20047;-66
2021/01/29 08:47:27;;;;;;;4.40;1.60;;;;;;;9.93;70.04;97144.56;5053350;28;20086;-66
2021/01/29 08:50:07;;;;;;;6.07;1.75;;;;;;;10.00;69.76;97147.88;5092840;28;20125;-66
2021/01/29 08:53:03;;;;;;;7.43;1.35;;;;;;;10.03;69.03;97157.16;5096112;28;20040;-67
2021/01/29 08:55:40;;;;;;;6.43;2.38;;;;;;;10.16;69.46;97176.25;5092195;28;20048;-66
2021/01/29 08:58:16;;;;;;;4.50;1.90;;;;;;;10.26;68.98;97165.13;5091734;28;20051;-65
2021/01/29 09:00:43;;;;;;;7.30;2.17;;;;;;;10.27;69.26;97156.16;5093574;28;20057;-65
2021/01/29 09:03:21;;;;;;;6.72;1.50;;;;;;;10.15;68.30;97157.97;5094557;28;20082;-66
2021/01/29 09:05:57;;;;;;;6.30;1.63;;;;;;;10.11;68.93;97165.56;5094196;28;20495;-66
2021/01/29 09:08:24;;;;;;;9.27;1.98;;;;;;;10.12;69.02;97169.81;5094545;28;20447;-65
2021/01/29 09:11:04;;;;;;;5.53;2.00;;;;;;;10.36;69.06;97173.28;5095579;28;20044;-66
2021/01/29 09:13:33;;;;;;;4.97;1.45;;;;;;;10.51;68.29;97187.84;5095701;28;20044;-65
2021/01/29 09:16:05;;;;;;;8.30;2.00;;;;;;;10.57;68.14;97206.25;5095387;28;20040;-65
2021/01/29 09:18:40;;;;;;;6.97;2.42;;;;;;;10.40;68.37;97203.47;5095212;28;20115;-65
2021/01/29 09:21:12;;;;;;;8.23;2.20;;;;;;;10.15;68.33;97211.59;5094225;28;20051;-65
2021/01/29 09:23:49;;;;;;;8.57;1.85;;;;;;;10.02;69.84;97208.38;5095422;28;20059;-65
2021/01/29 09:26:22;;;;;;;8.00;2.28;;;;;;;9.93;70.14;97213.19;5093758;28;20058;-65
2021/01/29 09:28:58;;;;;;;7.15;2.30;;;;;;;10.05;70.69;97210.56;5095236;28;20055;-66
2021/01/29 09:31:29;;;;;;;9.30;2.72;;;;;;;10.05;69.82;97213.19;5095262;28;20048;-66
2021/01/29 09:34:00;;;;;;;11.93;2.35;;;;;;;10.09;69.90;97201.16;5094012;28;20050;-65
2021/01/29 09:36:30;;;;;;;5.97;1.60;;;;;;;10.11;68.92;97212.28;5095023;28;20051;-66
2021/01/29 09:39:01;;;;;;;10.52;2.50;;;;;;;10.16;68.36;97218.50;5095120;28;20437;-65
2021/01/29 09:41:32;;;;;;;8.85;2.30;;;;;;;10.20;67.52;97205.63;5095019;28;20047;-65
2021/01/29 09:44:06;;;;;;;7.97;2.17;;;;;;;10.25;66.62;97199.72;5095029;28;20048;-65
2021/01/29 09:46:33;;;;;;;;;;;;;;;10.20;66.30;97224.09;5095192;28;20062;-65
2021/01/29 09:49:08;;;;;;;8.60;1.85;;;;;;;10.27;66.21;97210.84;5094941;28;20266;-65
2021/01/29 09:51:47;;;;;;;10.90;2.35;;;;;;;10.36;65.70;97230.56;5094770;28;20040;-66
2021/01/29 09:54:21;;;;;;;8.75;2.38;;;;;;;10.33;65.33;97223.13;5093422;28;20436;-65
2021/01/29 09:56:55;;;;;;;9.93;2.13;;;;;;;10.32;64.97;97226.78;5094868;28;20505;-65
2021/01/29 09:59:31;;;;;;;8.48;2.05;;;;;;;10.40;65.45;97237.81;5094815;28;20040;-65
2021/01/29 10:02:05;;;;;;;7.95;1.90;;;;;;;10.36;64.68;97236.66;5094727;28;20048;-65
2021/01/29 10:04:57;;;;;;;9.13;2.22;;;;;;;10.40;64.98;97245.75;5094626;28;20068;-66
2021/01/29 10:07:27;;;;;;;8.20;1.98;;;;;;;10.34;64.75;97261.72;5094636;28;20048;-66
2021/01/29 10:10:04;;;;;;;6.70;2.10;;;;;;;10.25;65.75;97242.75;5094793;28;20044;-66
2021/01/29 10:12:35;;;;;;;33.42;17.42;;;;;;;10.23;67.02;97257.19;5093303;28;20048;-66
2021/01/29 10:15:06;;;;;;;7.53;3.90;;;;;;;10.15;67.87;97245.91;5094432;28;20501;-65
2021/01/29 10:17:36;;;;;;;7.82;2.92;;;;;;;10.06;68.75;97249.13;5094531;28;20044;-65
2021/01/29 10:20:07;;;;;;;7.57;2.17;;;;;;;10.18;68.82;97253.38;5094741;28;20320;-66
2021/01/29 10:23:04;;;;;;;7.57;2.08;;;;;;;10.11;68.81;97239.47;5094669;28;20051;-64
2021/01/29 10:25:45;;;;;;;8.35;2.20;;;;;;;10.11;68.84;97239.47;5094461;28;20054;-64
2021/01/29 10:28:30;;;;;;;7.43;2.13;;;;;;;10.11;68.37;97234.19;5094663;28;20498;-64
2021/01/29 10:31:02;;;;;;;9.43;1.38;;;;;;;10.16;67.55;97239.63;5119635;28;20058;-65
2021/01/29 10:33:32;;;;;;;7.35;2.58;;;;;;;10.30;67.66;97244.72;5119882;28;20099;-65
2021/01/29 10:36:05;;;;;;;5.93;1.77;;;;;;;10.31;67.34;97244.47;5098107;28;20052;-65
2021/01/29 10:38:39;;;;;;;11.30;2.00;;;;;;;10.41;66.71;97252.66;5094428;28;20512;-65
2021/01/29 10:41:15;;;;;;;7.65;2.08;;;;;;;10.50;66.34;97239.91;5094550;28;20052;-64
2021/01/29 10:43:48;;;;;;;5.95;1.92;;;;;;;10.55;65.73;97257.69;5094660;28;20040;-64
2021/01/29 10:46:39;;;;;;;8.50;2.25;;;;;;;10.62;65.41;97250.47;5093711;28;20055;-65
2021/01/29 10:49:15;;;;;;;8.07;1.80;;;;;;;10.65;64.64;97258.75;5094217;28;20048;-64
2021/01/29 10:51:57;;;;;;;7.18;1.80;;;;;;;10.67;64.92;97255.84;5092686;28;20067;-64
2021/01/29 10:54:32;;;;;;;4.47;1.45;;;;;;;10.65;64.34;97263.19;5093661;28;20052;-64
2021/01/29 10:57:09;;;;;;;6.18;1.90;;;;;;;10.72;64.27;97245.41;5093795;28;20048;-64
2021/01/29 10:59:42;;;;;;;6.25;1.92;;;;;;;10.70;64.55;97260.69;5093537;28;20040;-65
2021/01/29 11:02:14;;;;;;;7.05;1.92;;;;;;;10.61;64.73;97257.59;5093741;28;20135;-65
2021/01/29 11:04:46;;;;;;;6.90;2.20;;;;;;;10.48;64.75;97259.66;5093653;28;20044;-65
2021/01/29 11:07:22;;;;;;;4.13;1.90;;;;;;;10.40;64.99;97252.84;5093608;28;20047;-65
2021/01/29 11:09:57;;;;;;;7.75;2.10;;;;;;;10.48;65.07;97260.44;5093552;28;20040;-64
2021/01/29 11:12:33;;;;;;;9.00;2.17;;;;;;;10.46;64.72;97259.09;5093816;28;20410;-65
2021/01/29 11:15:10;;;;;;;9.82;2.53;;;;;;;10.54;64.46;97250.81;5093105;28;20478;-64
2021/01/29 11:17:43;;;;;;;9.68;2.13;;;;;;;10.66;64.20;97273.56;5093170;28;20044;-64
2021/01/29 11:20:16;;;;;;;13.98;2.38;;;;;;;10.58;64.15;97278.38;5093016;28;20071;-65
2021/01/29 11:23:00;;;;;;;13.13;2.60;;;;;;;10.72;64.18;97260.44;5092616;28;20066;-65
2021/01/29 11:25:42;;;;;;;12.70;2.80;;;;;;;10.71;63.89;97266.78;5093219;28;20398;-64
2021/01/29 11:28:22;;;;;;;12.35;3.00;;;;;;;10.61;64.06;97262.88;5092986;28;20054;-65
2021/01/29 11:30:57;;;;;;;14.98;3.38;;;;;;;10.47;64.75;97276.53;5091713;28;20044;-64
2021/01/29 11:33:31;;;;;;;11.05;2.78;;;;;;;10.34;65.91;97285.47;5092968;28;20040;-65
2021/01/29 11:36:06;;;;;;;13.65;2.78;;;;;;;10.22;66.73;97285.44;5092519;28;20051;-65
2021/01/29 11:38:49;;;;;;;13.55;3.40;;;;;;;10.08;68.20;97282.19;5092769;28;20106;-65
2021/01/29 11:41:23;;;;;;;8.02;3.00;;;;;;;10.08;69.02;97274.28;5093096;28;20044;-65
2021/01/29 11:43:58;;;;;;;17.60;4.20;;;;;;;10.00;70.12;97273.78;5092884;28;20055;-64
2021/01/29 11:46:28;;;;;;;17.27;5.47;;;;;;;9.89;70.97;97273.53;5092447;28;20051;-64
2021/01/29 11:49:07;;;;;;;11.20;3.67;;;;;;;9.98;71.15;97267.94;5093072;28;20130;-65
2021/01/29 11:51:38;;;;;;;11.10;3.97;;;;;;;10.03;70.81;97273.31;5092653;28;20039;-64
2021/01/29 11:54:23;;;;;;;11.23;3.80;;;;;;;10.01;71.19;97270.13;5092612;28;20052;-64
2021/01/29 11:57:02;;;;;;;14.93;2.72;;;;;;;10.12;70.88;97262.22;5092583;28;20052;-65
2021/01/29 11:59:43;;;;;;;13.27;6.07;;;;;;;10.16;70.58;97252.81;5092697;28;20040;-65
2021/01/29 12:02:22;;;;;;;8.30;3.00;;;;;;;10.24;69.70;97246.38;5092621;28;20498;-64
2021/01/29 12:04:58;;;;;;;12.23;3.63;;;;;;;10.26;68.29;97252.28;5092393;28;20492;-64
2021/01/29 12:07:31;;;;;;;9.75;2.97;;;;;;;10.39;68.58;97249.41;5092257;28;20101;-65
2021/01/29 12:10:07;;;;;;;10.80;3.22;;;;;;;10.43;67.69;97243.69;5091127;28;20040;-65
2021/01/29 12:12:41;;;;;;;9.45;2.22;;;;;;;10.48;67.61;97244.59;5092467;28;20490;-64
2021/01/29 12:15:14;;;;;;;8.15;2.30;;;;;;;10.44;66.26;97221.50;5091990;28;20054;-65
2021/01/29 12:17:49;;;;;;;11.45;1.98;;;;;;;10.50;65.00;97245.19;5092186;28;20051;-64
2021/01/29 12:20:28;;;;;;;11.25;2.67;;;;;;;10.46;65.35;97241.38;5092183;28;20051;-66
2021/01/29 12:23:08;;;;;;;12.40;2.53;;;;;;;10.45;65.18;97231.88;5092283;28;20046;-65
2021/01/29 12:25:56;;;;;;;11.10;2.80;;;;;;;10.59;65.14;97250.91;5092143;28;20056;-65
2021/01/29 12:28:32;;;;;;;7.68;2.33;;;;;;;10.44;64.83;97242.66;5092161;28;20043;-64
2021/01/29 12:31:08;;;;;;;11.35;2.05;;;;;;;10.50;65.07;97239.91;5092405;28;20048;-65
2021/01/29 12:33:47;;;;;;;10.40;2.88;;;;;;;10.60;64.64;97239.31;5092236;28;20132;-65
2021/01/29 12:36:18;;;;;;;9.07;2.38;;;;;;;10.53;63.96;97252.66;5090921;28;20036;-65
2021/01/29 12:38:53;;;;;;;8.32;2.28;;;;;;;10.54;64.39;97235.75;5092036;28;20040;-65
2021/01/29 12:41:29;;;;;;;5.88;1.98;;;;;;;10.47;64.24;97247.47;5092059;28;20040;-65
2021/01/29 12:44:15;;;;;;;7.40;2.28;;;;;;;10.43;65.05;97239.19;5092184;28;20048;-65
2021/01/29 12:46:45;;;;;;;4.05;1.48;;;;;;;10.35;66.00;97240.34;5092063;28;20257;-65
2021/01/29 12:49:20;;;;;;;8.40;2.22;;;;;;;10.33;66.56;97239.78;5092302;28;20036;-65
2021/01/29 12:51:51;;;;;;;9.10;2.20;;;;;;;10.43;66.69;97239.19;5092073;28;20050;-65